Time;durP1;ratioP1;P1;durP2;ratioP2;P2;SDS_P1;SDS_P2;PMS_P1;PMS_P2;Temp;Humidity;BMP_temperature;BMP_pressure;BME280_temperature;BME280_humidity;BME280_pressure;Samples;Min_cycle;Max_cycle;Signal;HPM_P1;HPM_P2
2023/06/15 00:02:22;;;;;;;7.73;4.67;;;18.80;72.20;;;;;;5075033;28;20769;-46
2023/06/15 00:04:49;;;;;;;4.97;4.17;;;19.00;72.70;;;;;;5075051;28;20449;-46
2023/06/15 00:07:15;;;;;;;5.37;3.67;;;19.00;72.80;;;;;;5075849;28;20830;-47
2023/06/15 00:09:42;;;;;;;7.77;4.90;;;19.00;73.10;;;;;;5075151;28;20991;-47
2023/06/15 00:12:09;;;;;;;7.33;4.50;;;18.80;73.00;;;;;;5057294;28;20460;-47
2023/06/15 00:14:36;;;;;;;4.93;4.17;;;18.90;73.30;;;;;;5074986;28;20490;-47
2023/06/15 00:17:03;;;;;;;6.13;3.80;;;18.90;73.30;;;;;;5074739;28;20433;-46
2023/06/15 00:19:31;;;;;;;9.03;4.77;;;19.10;73.80;;;;;;5056844;28;20805;-46
2023/06/15 00:21:58;;;;;;;9.27;4.93;;;18.90;73.70;;;;;;5074589;28;20432;-47
2023/06/15 00:24:25;;;;;;;6.63;4.23;;;18.90;73.80;;;;;;5074497;28;20468;-46
2023/06/15 00:26:51;;;;;;;5.30;3.67;;;19.10;74.40;;;;;;5074723;28;20462;-47
2023/06/15 00:29:18;;;;;;;4.17;3.43;;;18.90;74.40;;;;;;5056357;28;20811;-47
2023/06/15 00:31:45;;;;;;;6.47;3.97;;;18.70;74.30;;;;;;5075106;28;20456;-46
2023/06/15 00:34:11;;;;;;;7.80;3.73;;;18.90;74.70;;;;;;5074475;28;20563;-47
2023/06/15 00:36:39;;;;;;;6.80;3.73;;;18.50;74.40;;;;;;5074218;28;20429;-46
2023/06/15 00:39:07;;;;;;;6.50;4.23;;;18.80;75.10;;;;;;5055676;28;20452;-47
2023/06/15 00:41:41;;;;;;;6.50;3.93;;;18.60;75.10;;;;;;5074644;28;20532;-47
2023/06/15 00:44:08;;;;;;;7.50;4.00;;;18.60;75.20;;;;;;5074369;28;20437;-47
2023/06/15 00:46:35;;;;;;;7.00;4.83;;;18.50;75.60;;;;;;5056523;28;20459;-48
2023/06/15 00:49:04;;;;;;;7.63;3.37;;;18.30;75.50;;;;;;5057183;28;20463;-47
2023/06/15 00:51:32;;;;;;;9.43;4.03;;;18.40;76.00;;;;;;5056466;28;20945;-46
2023/06/15 00:54:01;;;;;;;6.47;4.30;;;18.40;76.20;;;;;;5074528;28;20816;-49
2023/06/15 00:56:29;;;;;;;6.40;4.03;;;18.60;77.00;;;;;;5056248;28;20448;-45
2023/06/15 00:58:56;;;;;;;5.20;4.40;;;18.30;76.80;;;;;;5074573;28;20437;-47
2023/06/15 01:01:22;;;;;;;4.87;3.93;;;18.00;76.80;;;;;;5056195;28;20826;-46
2023/06/15 01:03:50;;;;;;;5.63;3.97;;;17.90;76.80;;;;;;5073962;28;20440;-46
2023/06/15 01:06:19;;;;;;;5.43;4.20;;;18.20;77.60;;;;;;5073828;28;20457;-46
2023/06/15 01:08:52;;;;;;;7.97;4.43;;;17.90;77.70;;;;;;5073544;28;20437;-47
2023/06/15 01:11:21;;;;;;;5.00;4.17;;;17.80;77.60;;;;;;5056032;28;20988;-48
2023/06/15 01:13:49;;;;;;;6.37;3.90;;;18.00;78.20;;;;;;5073920;28;20917;-47
2023/06/15 01:16:23;;;;;;;5.90;4.20;;;18.10;78.60;;;;;;5073757;28;20513;-46
2023/06/15 01:18:56;;;;;;;4.87;3.73;;;17.90;78.70;;;;;;5073468;28;20411;-47
2023/06/15 01:21:26;;;;;;;5.23;4.30;;;17.80;78.90;;;;;;5073771;28;20419;-46
2023/06/15 01:24:03;;;;;;;6.20;4.07;;;17.70;79.20;;;;;;5074075;28;20479;-46
2023/06/15 01:26:32;;;;;;;9.83;4.60;;;17.70;79.60;;;;;;5074086;28;20428;-49
2023/06/15 01:28:59;;;;;;;5.33;3.83;;;17.60;79.80;;;;;;5073084;28;20526;-47
2023/06/15 01:31:29;;;;;;;6.40;4.40;;;17.60;79.80;;;;;;5073511;28;20928;-47
2023/06/15 01:34:00;;;;;;;5.33;4.10;;;17.60;80.10;;;;;;5055478;28;20970;-49
2023/06/15 01:36:27;;;;;;;7.13;4.67;;;17.60;80.30;;;;;;5073606;28;20982;-47
2023/06/15 01:38:57;;;;;;;8.53;4.30;;;17.50;80.40;;;;;;5073270;28;20426;-46
2023/06/15 01:41:26;;;;;;;6.00;4.00;;;17.50;80.50;;;;;;5073333;28;20441;-48
2023/06/15 01:43:55;;;;;;;6.33;3.90;;;17.50;80.80;;;;;;5073360;28;20417;-46
2023/06/15 01:46:23;;;;;;;4.87;4.13;;;17.40;81.00;;;;;;5055361;28;20467;-48
2023/06/15 01:48:51;;;;;;;5.07;3.80;;;17.30;81.20;;;;;;5072563;28;20432;-47
2023/06/15 01:51:18;;;;;;;7.93;4.37;;;17.30;81.50;;;;;;5055205;28;20429;-46
2023/06/15 01:53:44;;;;;;;4.83;4.33;;;17.30;81.60;;;;;;5073200;28;20446;-47
2023/06/15 01:56:11;;;;;;;7.40;4.40;;;17.20;81.80;;;;;;5072815;28;20515;-46
2023/06/15 01:58:38;;;;;;;7.07;4.30;;;17.40;82.40;;;;;;5054400;28;20452;-47
2023/06/15 02:01:06;;;;;;;7.80;4.10;;;17.10;82.50;;;;;;5054956;28;20457;-48
2023/06/15 02:03:33;;;;;;;6.00;4.30;;;17.00;82.90;;;;;;5072985;28;20817;-46
2023/06/15 02:06:00;;;;;;;5.23;3.73;;;17.10;83.30;;;;;;5074341;28;20447;-46
2023/06/15 02:08:26;;;;;;;8.50;4.40;;;16.70;83.00;;;;;;5072346;28;20926;-47
2023/06/15 02:10:53;;;;;;;5.33;4.50;;;17.00;83.30;;;;;;5072763;28;20435;-46
2023/06/15 02:13:19;;;;;;;5.23;4.03;;;16.70;83.20;;;;;;5054692;28;20446;-46
2023/06/15 02:15:46;;;;;;;6.63;4.43;;;16.90;83.60;;;;;;5054453;28;20922;-48
2023/06/15 02:18:16;;;;;;;6.60;4.60;;;16.90;83.70;;;;;;5072261;28;20947;-46
2023/06/15 02:20:45;;;;;;;7.63;4.20;;;16.90;83.70;;;;;;5054357;28;20418;-48
2023/06/15 02:23:12;;;;;;;5.00;4.50;;;16.90;84.00;;;;;;5072457;28;20428;-46
2023/06/15 02:25:39;;;;;;;5.37;4.03;;;16.80;84.00;;;;;;5072278;28;21008;-46
2023/06/15 02:28:06;;;;;;;7.27;4.10;;;16.80;84.10;;;;;;5072030;28;20449;-46
2023/06/15 02:30:33;;;;;;;6.50;4.40;;;16.80;84.30;;;;;;5054336;28;20536;-45
2023/06/15 02:33:00;;;;;;;6.80;4.47;;;16.80;84.40;;;;;;5072185;28;20528;-46
2023/06/15 02:35:29;;;;;;;5.97;4.30;;;17.00;84.70;;;;;;5054079;28;20526;-46
2023/06/15 02:37:56;;;;;;;4.87;3.93;;;16.80;84.80;;;;;;5054345;28;20548;-47
2023/06/15 02:40:23;;;;;;;5.87;4.50;;;16.80;84.80;;;;;;5053736;28;20460;-47
2023/06/15 02:42:50;;;;;;;5.63;4.53;;;16.80;84.90;;;;;;5072531;28;20531;-47
2023/06/15 02:45:17;;;;;;;7.73;4.27;;;17.10;85.50;;;;;;5072115;28;20816;-47
2023/06/15 02:47:44;;;;;;;6.23;4.37;;;16.80;85.20;;;;;;5054095;28;20451;-47
2023/06/15 02:50:11;;;;;;;5.33;4.57;;;16.80;85.80;;;;;;5053885;28;20432;-48
2023/06/15 02:52:45;;;;;;;5.37;4.10;;;16.50;85.50;;;;;;5054169;28;20465;-46
2023/06/15 02:55:14;;;;;;;10.13;4.10;;;16.70;86.10;;;;;;5054018;28;20519;-47
2023/06/15 02:57:42;;;;;;;6.83;4.53;;;16.70;86.20;;;;;;5054347;28;20456;-46
2023/06/15 03:00:23;;;;;;;7.37;4.90;;;16.70;86.40;;;;;;5053357;28;20795;-48
2023/06/15 03:02:58;;;;;;;4.67;4.20;;;16.70;86.40;;;;;;5054335;28;20441;-47
2023/06/15 03:05:30;;;;;;;5.73;4.40;;;16.70;86.60;;;;;;5054011;28;20504;-46
2023/06/15 03:08:01;;;;;;;7.13;4.53;;;16.60;86.90;;;;;;5054140;28;20477;-48
2023/06/15 03:10:34;;;;;;;11.30;4.80;;;16.60;86.90;;;;;;5054182;28;20821;-46
2023/06/15 03:13:01;;;;;;;6.10;4.10;;;16.60;87.10;;;;;;5071832;28;20425;-47
2023/06/15 03:15:28;;;;;;;5.07;4.57;;;16.50;87.20;;;;;;5053575;28;20477;-48
2023/06/15 03:17:55;;;;;;;10.33;4.63;;;16.60;87.60;;;;;;5053738;28;20508;-47
2023/06/15 03:20:24;;;;;;;5.10;4.20;;;16.60;87.70;;;;;;5054485;28;20548;-47
2023/06/15 03:22:53;;;;;;;6.53;3.87;;;16.60;87.70;;;;;;5055153;28;20446;-47
2023/06/15 03:25:21;;;;;;;6.60;4.40;;;16.70;88.20;;;;;;5071746;28;20470;-46
2023/06/15 03:27:49;;;;;;;8.90;4.70;;;16.60;88.10;;;;;;5071854;28;20917;-48
2023/06/15 03:30:17;;;;;;;5.13;4.30;;;16.50;88.30;;;;;;5053452;28;20465;-46
2023/06/15 03:32:46;;;;;;;6.77;4.33;;;16.60;88.70;;;;;;5053738;28;20444;-47
2023/06/15 03:35:14;;;;;;;6.77;4.10;;;16.50;89.10;;;;;;5053381;28;20994;-46
2023/06/15 03:37:43;;;;;;;4.20;3.70;;;16.50;89.30;;;;;;5053580;28;21048;-48
2023/06/15 03:40:10;;;;;;;5.60;4.63;;;16.90;90.00;;;;;;5053274;28;20449;-46
2023/06/15 03:42:38;;;;;;;7.20;4.03;;;16.90;90.10;;;;;;5053539;28;20501;-46
2023/06/15 03:45:07;;;;;;;5.10;4.53;;;16.50;90.30;;;;;;5053192;28;21051;-47
2023/06/15 03:47:34;;;;;;;5.90;4.27;;;16.40;90.30;;;;;;5053561;28;20979;-48
2023/06/15 03:50:01;;;;;;;5.17;4.67;;;16.40;90.40;;;;;;5053039;28;20485;-47
2023/06/15 03:52:32;;;;;;;5.30;4.80;;;16.40;90.60;;;;;;5053308;28;20958;-46
2023/06/15 03:55:00;;;;;;;8.00;4.20;;;16.50;91.00;;;;;;5053277;28;20477;-46
2023/06/15 03:57:26;;;;;;;10.23;5.43;;;16.50;90.70;;;;;;5053186;28;20449;-46
2023/06/15 03:59:55;;;;;;;5.50;4.90;;;16.50;90.70;;;;;;5053037;28;20435;-47
2023/06/15 04:02:21;;;;;;;6.60;4.73;;;16.50;90.90;;;;;;5071317;28;20412;-47
2023/06/15 04:04:48;;;;;;;7.83;4.00;;;16.60;91.00;;;;;;5053192;28;20842;-47
2023/06/15 04:07:17;;;;;;;7.23;4.50;;;16.60;91.10;;;;;;5053180;28;20450;-47
2023/06/15 04:09:43;;;;;;;5.43;4.63;;;16.60;91.10;;;;;;5052817;28;20425;-46
2023/06/15 04:12:10;;;;;;;5.20;4.60;;;16.70;91.20;;;;;;5053071;28;20819;-46
2023/06/15 04:14:37;;;;;;;5.93;4.53;;;17.10;91.30;;;;;;5056634;28;20519;-48
2023/06/15 04:17:06;;;;;;;7.87;3.97;;;16.80;91.00;;;;;;5056457;28;20484;-46
2023/06/15 04:19:33;;;;;;;6.03;4.50;;;17.10;91.00;;;;;;5074133;28;20446;-46
2023/06/15 04:22:00;;;;;;;7.33;4.60;;;17.20;90.90;;;;;;5056629;28;20455;-46
2023/06/15 04:24:26;;;;;;;4.50;4.10;;;17.20;90.80;;;;;;5056362;28;20514;-47
2023/06/15 04:26:53;;;;;;;9.17;4.57;;;17.30;90.70;;;;;;5056550;28;20458;-47
2023/06/15 04:29:22;;;;;;;5.07;4.23;;;17.50;90.60;;;;;;5055962;28;20449;-46
2023/06/15 04:31:55;;;;;;;7.80;3.90;;;17.40;90.50;;;;;;5056498;28;20833;-46
2023/06/15 04:34:24;;;;;;;5.47;4.07;;;17.60;90.50;;;;;;5056397;28;20906;-46
2023/06/15 04:36:50;;;;;;;5.97;3.70;;;17.70;90.30;;;;;;5056166;28;20524;-46
2023/06/15 04:39:18;;;;;;;5.30;4.30;;;17.90;90.20;;;;;;5058316;28;20443;-47
2023/06/15 04:41:45;;;;;;;8.43;4.70;;;17.80;90.00;;;;;;5056642;28;20459;-47
2023/06/15 04:44:12;;;;;;;6.53;4.30;;;17.90;90.00;;;;;;5074195;28;20486;-47
2023/06/15 04:46:41;;;;;;;7.07;4.33;;;17.90;89.90;;;;;;5055932;28;20441;-46
2023/06/15 04:49:09;;;;;;;5.07;4.43;;;17.90;89.70;;;;;;5055925;28;20440;-47
2023/06/15 04:51:39;;;;;;;6.70;4.13;;;17.90;89.80;;;;;;5056114;28;20455;-46
2023/06/15 04:54:06;;;;;;;4.70;3.70;;;17.50;89.40;;;;;;5056043;28;20461;-46
2023/06/15 04:56:34;;;;;;;5.97;4.23;;;17.50;89.40;;;;;;5055867;28;20483;-45
2023/06/15 04:59:00;;;;;;;7.50;4.80;;;18.00;89.70;;;;;;5055588;28;21047;-47
2023/06/15 05:01:27;;;;;;;4.73;4.33;;;18.00;89.60;;;;;;5056040;28;20456;-46
2023/06/15 05:03:54;;;;;;;7.53;4.70;;;18.10;89.60;;;;;;5055732;28;20954;-47
2023/06/15 05:06:22;;;;;;;7.63;4.03;;;18.10;89.40;;;;;;5055383;28;20464;-47
2023/06/15 05:08:50;;;;;;;7.20;4.80;;;18.40;89.40;;;;;;5055637;28;20821;-47
2023/06/15 05:11:17;;;;;;;5.77;4.13;;;18.60;89.20;;;;;;5055587;28;20552;-48
2023/06/15 05:13:45;;;;;;;10.43;4.30;;;18.50;88.80;;;;;;5055980;28;20827;-47
2023/06/15 05:16:11;;;;;;;6.50;4.30;;;18.50;88.70;;;;;;5055250;28;21057;-47
2023/06/15 05:18:39;;;;;;;6.47;4.50;;;18.50;88.70;;;;;;5055267;28;20419;-47
2023/06/15 05:21:06;;;;;;;6.43;3.77;;;18.50;88.90;;;;;;5055059;28;20476;-48
2023/06/15 05:23:36;;;;;;;6.60;4.10;;;18.50;88.70;;;;;;5055295;28;20457;-46
2023/06/15 05:26:04;;;;;;;7.70;3.80;;;19.00;88.90;;;;;;5055296;28;20537;-47
2023/06/15 05:28:31;;;;;;;4.87;3.60;;;19.20;88.90;;;;;;5054023;28;20501;-46
2023/06/15 05:30:59;;;;;;;6.13;4.30;;;18.80;88.30;;;;;;5068369;28;20455;-46
2023/06/15 05:33:25;;;;;;;7.27;4.10;;;18.80;88.30;;;;;;5062714;28;20478;-47
2023/06/15 05:35:52;;;;;;;5.03;4.10;;;18.80;88.30;;;;;;5074874;28;20504;-46
2023/06/15 05:38:20;;;;;;;9.67;4.77;;;19.10;88.40;;;;;;5061485;28;20453;-46
2023/06/15 05:40:48;;;;;;;6.70;3.70;;;18.40;87.60;;;;;;5055297;28;20431;-46
2023/06/15 05:43:17;;;;;;;10.10;4.67;;;18.60;87.90;;;;;;5054847;28;21022;-47
2023/06/15 05:45:44;;;;;;;6.30;4.53;;;18.70;88.40;;;;;;5058313;28;20474;-47
2023/06/15 05:48:11;;;;;;;8.87;5.13;;;18.60;88.50;;;;;;5074116;28;21033;-46
2023/06/15 05:50:38;;;;;;;7.87;4.80;;;18.60;88.70;;;;;;5074784;28;20542;-46
2023/06/15 05:53:05;;;;;;;5.50;4.77;;;18.70;88.90;;;;;;5074890;28;20466;-46
2023/06/15 05:55:33;;;;;;;6.63;4.20;;;18.40;88.70;;;;;;5074466;28;20503;-47
2023/06/15 05:57:59;;;;;;;8.07;4.80;;;18.50;89.10;;;;;;5093575;28;20437;-47
2023/06/15 06:00:30;;;;;;;7.57;4.70;;;18.10;88.70;;;;;;5074162;28;20504;-45
2023/06/15 06:02:58;;;;;;;8.40;4.63;;;18.90;89.70;;;;;;5069402;28;20455;-46
2023/06/15 06:05:36;;;;;;;7.53;4.30;;;18.60;89.30;;;;;;5054077;28;20476;-47
2023/06/15 06:08:03;;;;;;;8.03;4.00;;;18.60;89.30;;;;;;5054136;28;20445;-48
2023/06/15 06:10:30;;;;;;;6.07;4.10;;;18.60;89.10;;;;;;5072139;28;20542;-46
2023/06/15 06:13:10;;;;;;;9.40;4.87;;;18.70;89.20;;;;;;5054197;28;20459;-47
2023/06/15 06:15:38;;;;;;;7.70;4.83;;;18.80;89.20;;;;;;5053739;28;20544;-47
2023/06/15 06:18:05;;;;;;;7.57;4.87;;;18.80;89.00;;;;;;5071801;28;20412;-46
2023/06/15 06:20:32;;;;;;;8.30;4.40;;;18.90;88.80;;;;;;5053874;28;20454;-46
2023/06/15 06:22:58;;;;;;;8.23;4.13;;;19.00;88.50;;;;;;5054263;28;20463;-47
2023/06/15 06:25:25;;;;;;;9.63;4.63;;;19.00;88.20;;;;;;5071765;28;20997;-47
2023/06/15 06:27:52;;;;;;;7.77;4.70;;;19.10;88.20;;;;;;5072118;28;20440;-47
2023/06/15 06:30:18;;;;;;;6.93;4.13;;;19.50;88.30;;;;;;5071686;28;20459;-46
2023/06/15 06:32:46;;;;;;;5.70;3.73;;;19.20;87.70;;;;;;5054273;28;20448;-47
2023/06/15 06:35:13;;;;;;;6.80;4.47;;;19.40;87.70;;;;;;5071207;28;20468;-47
2023/06/15 06:37:40;;;;;;;8.63;4.80;;;19.30;87.20;;;;;;5082192;28;20529;-46
2023/06/15 06:40:08;;;;;;;7.40;5.13;;;19.40;87.00;;;;;;5092184;28;20425;-47
2023/06/15 06:42:35;;;;;;;7.10;4.97;;;19.70;87.10;;;;;;5093375;28;20450;-46
2023/06/15 06:45:02;;;;;;;5.40;3.80;;;19.60;86.60;;;;;;5092958;28;21026;-48
2023/06/15 06:47:30;;;;;;;7.13;4.37;;;19.30;86.00;;;;;;5092518;28;20756;-46
2023/06/15 06:49:59;;;;;;;5.13;4.17;;;19.80;86.00;;;;;;5091754;28;20427;-48
2023/06/15 06:52:25;;;;;;;6.53;4.40;;;19.60;85.20;;;;;;5091634;28;20816;-47
2023/06/15 06:54:52;;;;;;;9.93;5.00;;;19.90;85.50;;;;;;5073523;28;20472;-47
2023/06/15 06:57:19;;;;;;;6.50;4.37;;;19.90;85.20;;;;;;5090874;28;20964;-46
2023/06/15 06:59:45;;;;;;;9.80;4.17;;;20.20;85.40;;;;;;5090801;28;20436;-47
2023/06/15 07:02:13;;;;;;;5.77;4.33;;;20.00;84.80;;;;;;5091618;28;20441;-46
2023/06/15 07:04:40;;;;;;;5.03;4.20;;;20.20;84.60;;;;;;5092252;28;21254;-47
2023/06/15 07:07:08;;;;;;;5.37;4.63;;;20.30;84.10;;;;;;5073295;28;20851;-47
2023/06/15 07:09:35;;;;;;;7.53;4.70;;;20.30;84.00;;;;;;5073338;28;20887;-47
2023/06/15 07:12:02;;;;;;;5.70;4.10;;;20.40;83.80;;;;;;5073731;28;20454;-47
2023/06/15 07:14:28;;;;;;;12.23;4.63;;;20.50;83.50;;;;;;5091638;28;20861;-48
2023/06/15 07:16:55;;;;;;;7.67;4.63;;;20.60;83.10;;;;;;5082500;28;20465;-48
2023/06/15 07:19:21;;;;;;;8.73;4.93;;;20.70;83.00;;;;;;5076351;28;20442;-47
2023/06/15 07:21:48;;;;;;;7.10;4.90;;;20.80;82.70;;;;;;5092032;28;20442;-47
2023/06/15 07:24:22;;;;;;;12.17;5.53;;;20.80;82.30;;;;;;5072651;28;20440;-47
2023/06/15 07:26:48;;;;;;;10.33;4.87;;;20.80;82.10;;;;;;5071757;28;20533;-48
2023/06/15 07:29:15;;;;;;;7.80;4.50;;;20.70;82.00;;;;;;5070813;28;20591;-48
2023/06/15 07:31:42;;;;;;;6.70;4.20;;;20.70;82.30;;;;;;5053671;28;20457;-47
2023/06/15 07:34:09;;;;;;;6.33;4.27;;;20.70;82.60;;;;;;5091431;28;20430;-48
2023/06/15 07:36:37;;;;;;;6.80;5.13;;;20.60;82.60;;;;;;5091429;28;20489;-48
2023/06/15 07:39:04;;;;;;;10.83;4.97;;;20.50;82.90;;;;;;5091116;28;20433;-47
2023/06/15 07:41:32;;;;;;;10.50;4.93;;;20.40;82.80;;;;;;5050112;28;20454;-50
2023/06/15 07:43:59;;;;;;;7.27;4.27;;;20.50;83.10;;;;;;5050928;28;20435;-47
2023/06/15 07:46:25;;;;;;;6.10;4.40;;;20.40;83.30;;;;;;5051710;28;20455;-47
2023/06/15 07:48:52;;;;;;;8.43;4.73;;;20.40;83.50;;;;;;5057988;28;20434;-48
2023/06/15 07:51:18;;;;;;;5.10;4.60;;;20.40;83.80;;;;;;5095565;28;20408;-47
2023/06/15 07:53:46;;;;;;;7.83;4.67;;;20.40;83.70;;;;;;5073763;28;20445;-48
2023/06/15 07:56:13;;;;;;;5.10;4.10;;;20.30;83.80;;;;;;5074700;28;20556;-48
2023/06/15 07:58:41;;;;;;;5.33;4.67;;;20.30;84.00;;;;;;5074628;28;20444;-47
2023/06/15 08:01:07;;;;;;;7.57;4.90;;;20.30;84.40;;;;;;5074481;28;20950;-48
2023/06/15 08:03:34;;;;;;;7.93;4.60;;;20.30;84.40;;;;;;5074473;28;20445;-47
2023/06/15 08:06:00;;;;;;;8.03;4.80;;;20.40;84.50;;;;;;5074420;28;20982;-47
2023/06/15 08:08:27;;;;;;;9.40;5.13;;;20.40;84.50;;;;;;5073949;28;20432;-48
2023/06/15 08:10:54;;;;;;;32.70;6.57;;;20.50;84.50;;;;;;5074670;28;20883;-47
2023/06/15 08:13:20;;;;;;;6.00;4.50;;;20.60;84.20;;;;;;5074430;28;20439;-46
2023/06/15 08:15:49;;;;;;;8.73;4.73;;;20.60;83.70;;;;;;5074253;28;20433;-48
2023/06/15 08:18:17;;;;;;;12.40;4.43;;;20.60;83.80;;;;;;5056202;28;20920;-48
2023/06/15 08:20:44;;;;;;;9.83;6.10;;;20.60;83.70;;;;;;5074873;28;20421;-47
2023/06/15 08:23:11;;;;;;;7.10;5.90;;;20.60;84.10;;;;;;5074799;28;20447;-47
2023/06/15 08:25:37;;;;;;;7.40;5.00;;;20.30;83.80;;;;;;5056160;28;20513;-48
2023/06/15 08:28:04;;;;;;;9.57;4.80;;;20.70;84.20;;;;;;5074201;28;20442;-49
2023/06/15 08:30:31;;;;;;;4.83;4.43;;;20.80;83.90;;;;;;5074122;28;20442;-47
2023/06/15 08:32:59;;;;;;;10.97;5.90;;;20.90;83.50;;;;;;5075330;28;20945;-48
2023/06/15 08:35:26;;;;;;;5.87;5.07;;;21.10;83.30;;;;;;5057787;28;20468;-47
2023/06/15 08:37:52;;;;;;;6.00;5.07;;;21.10;82.50;;;;;;5074096;28;20480;-47
2023/06/15 08:40:20;;;;;;;7.50;5.37;;;21.30;82.60;;;;;;5072770;28;20819;-46
2023/06/15 08:42:46;;;;;;;7.60;4.83;;;21.40;82.60;;;;;;5061442;28;20488;-47
2023/06/15 08:45:13;;;;;;;7.53;6.10;;;21.50;82.20;;;;;;5073663;28;20456;-46
2023/06/15 08:47:41;;;;;;;6.60;4.63;;;21.60;82.00;;;;;;5055994;28;20459;-45
2023/06/15 08:50:10;;;;;;;7.60;5.43;;;21.60;81.80;;;;;;5073328;28;20410;-46
2023/06/15 08:52:38;;;;;;;8.13;4.80;;;21.80;81.70;;;;;;5068500;28;20791;-46
2023/06/15 08:55:05;;;;;;;7.20;5.15;;;21.80;81.00;;;;;;5059071;28;20436;-47
2023/06/15 08:57:32;;;;;;;5.43;4.93;;;22.00;79.80;;;;;;5054105;28;20561;-47
2023/06/15 08:59:59;;;;;;;6.70;4.73;;;22.10;79.00;;;;;;5072379;28;20440;-47
2023/06/15 09:02:27;;;;;;;12.27;4.97;;;22.20;77.90;;;;;;5073360;28;20460;-45
2023/06/15 09:04:54;;;;;;;6.50;4.40;;;22.30;77.20;;;;;;5072706;28;20955;-46
2023/06/15 09:07:23;;;;;;;6.43;5.10;;;22.50;77.40;;;;;;5073589;28;20438;-47
2023/06/15 09:10:11;;;;;;;7.90;6.13;;;22.70;77.60;;;;;;5055121;28;20503;-46
2023/06/15 09:12:42;;;;;;;10.67;5.40;;;23.00;77.20;;;;;;5074070;28;20449;-47
2023/06/15 09:15:09;;;;;;;20.27;7.27;;;23.20;76.60;;;;;;5074075;28;20945;-46
2023/06/15 09:17:37;;;;;;;10.17;5.10;;;23.40;75.40;;;;;;5073781;28;20474;-47
2023/06/15 09:20:06;;;;;;;15.07;5.40;;;23.40;74.20;;;;;;5072600;28;20429;-48
2023/06/15 09:22:40;;;;;;;7.60;5.50;;;23.90;73.60;;;;;;5073200;28;20766;-46
2023/06/15 09:25:16;;;;;;;6.90;4.83;;;23.80;72.50;;;;;;5073405;28;20867;-46
2023/06/15 09:27:53;;;;;;;11.07;5.90;;;23.50;70.90;;;;;;5073113;28;20429;-47
2023/06/15 09:30:21;;;;;;;6.00;5.13;;;23.70;70.70;;;;;;5072777;28;20460;-46
2023/06/15 09:32:47;;;;;;;5.83;4.40;;;23.60;69.90;;;;;;5073244;28;20519;-47
2023/06/15 09:35:14;;;;;;;7.13;4.70;;;23.60;69.20;;;;;;5073017;28;20455;-46
2023/06/15 09:37:42;;;;;;;7.67;4.87;;;23.50;68.20;;;;;;5073000;28;20475;-47
2023/06/15 09:40:12;;;;;;;5.23;4.40;;;23.60;67.70;;;;;;5072703;28;20434;-48
2023/06/15 09:42:40;;;;;;;8.27;5.40;;;23.60;67.10;;;;;;5073087;28;20782;-47
2023/06/15 09:45:08;;;;;;;11.40;5.30;;;23.60;66.50;;;;;;5072886;28;20495;-47
2023/06/15 09:47:37;;;;;;;6.03;4.90;;;23.60;66.30;;;;;;5060229;28;20447;-46
2023/06/15 09:50:09;;;;;;;5.80;4.50;;;23.60;66.90;;;;;;5051973;28;20804;-47
2023/06/15 09:52:43;;;;;;;7.77;5.10;;;23.50;66.40;;;;;;5053462;28;20487;-46
2023/06/15 09:55:11;;;;;;;6.17;4.37;;;23.60;66.50;;;;;;5052677;28;20463;-47
2023/06/15 09:57:41;;;;;;;5.50;4.85;;;23.50;66.50;;;;;;5052210;28;20389;-46
2023/06/15 10:00:09;;;;;;;8.10;5.55;;;23.20;66.20;;;;;;5055771;28;20501;-46
2023/06/15 10:02:40;;;;;;;5.30;4.80;;;23.70;67.00;;;;;;5062969;28;20289;-47
2023/06/15 10:05:13;;;;;;;6.20;5.00;;;23.60;68.00;;;;;;5069499;28;20831;-47
2023/06/15 10:07:48;;;;;;;12.30;5.27;;;23.60;68.50;;;;;;5068130;28;20501;-48
2023/06/15 10:10:17;;;;;;;7.60;4.70;;;23.40;68.40;;;;;;5033831;28;20487;-47
2023/06/15 10:12:49;;;;;;;8.70;5.03;;;23.70;69.30;;;;;;5052451;28;20952;-46
2023/06/15 10:15:18;;;;;;;7.93;4.93;;;23.70;69.70;;;;;;5052478;28;20453;-48
2023/06/15 10:17:48;;;;;;;8.13;5.20;;;23.70;68.80;;;;;;5052337;28;20510;-46
2023/06/15 10:20:16;;;;;;;5.57;4.97;;;23.80;68.80;;;;;;5059488;28;20466;-47
2023/06/15 10:22:50;;;;;;;7.43;4.70;;;23.80;68.30;;;;;;5072474;28;20448;-47
2023/06/15 10:25:18;;;;;;;9.73;5.00;;;23.90;68.20;;;;;;5072072;28;21002;-47
2023/06/15 10:27:45;;;;;;;9.47;5.67;;;23.90;68.30;;;;;;5071589;28;20456;-46
2023/06/15 10:30:20;;;;;;;8.23;5.30;;;23.90;68.30;;;;;;5071743;28;20465;-46
2023/06/15 10:32:52;;;;;;;6.13;4.77;;;23.90;68.00;;;;;;5071493;28;20531;-48
2023/06/15 10:35:26;;;;;;;5.80;4.27;;;23.80;66.20;;;;;;5071735;28;20465;-46
2023/06/15 10:38:02;;;;;;;6.67;4.10;;;23.70;64.60;;;;;;5071825;28;20483;-46
2023/06/15 10:40:37;;;;;;;5.60;4.40;;;23.60;62.70;;;;;;5071764;28;20456;-47
2023/06/15 10:43:03;;;;;;;6.37;4.37;;;23.60;63.00;;;;;;5071684;28;20456;-46
2023/06/15 10:45:31;;;;;;;8.10;4.20;;;23.50;63.30;;;;;;5071748;28;20457;-47
2023/06/15 10:47:59;;;;;;;8.60;3.47;;;23.40;63.90;;;;;;5071971;28;20531;-47
2023/06/15 10:50:26;;;;;;;9.10;3.83;;;23.30;63.10;;;;;;5071210;28;20448;-46
2023/06/15 10:52:56;;;;;;;6.83;4.60;;;23.10;62.90;;;;;;5071747;28;20824;-46
2023/06/15 10:55:23;;;;;;;6.97;4.80;;;23.10;63.00;;;;;;5070969;28;20470;-48
2023/06/15 10:58:15;;;;;;;5.40;4.30;;;23.10;63.50;;;;;;5070891;28;20487;-48
2023/06/15 11:00:42;;;;;;;5.03;3.63;;;23.10;63.80;;;;;;5071995;28;20457;-46
2023/06/15 11:03:24;;;;;;;9.43;5.90;;;23.00;63.10;;;;;;5071160;28;20532;-48
2023/06/15 11:06:06;;;;;;;6.97;3.80;;;23.00;62.40;;;;;;5083109;28;20469;-47
2023/06/15 11:08:44;;;;;;;5.40;3.13;;;23.00;62.20;;;;;;5090816;28;20456;-47
2023/06/15 11:11:12;;;;;;;5.17;3.87;;;23.00;61.80;;;;;;5092122;28;20426;-48
2023/06/15 11:13:57;;;;;;;4.90;3.57;;;23.00;61.90;;;;;;5073125;28;20462;-47
2023/06/15 11:16:27;;;;;;;4.70;4.30;;;23.00;61.80;;;;;;5091557;28;20430;-47
2023/06/15 11:19:15;;;;;;;8.17;4.53;;;23.00;61.90;;;;;;5090959;28;21003;-46
2023/06/15 11:21:44;;;;;;;6.73;3.70;;;23.20;61.90;;;;;;5091824;28;20440;-46
2023/06/15 11:24:15;;;;;;;4.90;3.47;;;23.30;61.80;;;;;;5078911;28;20449;-47
2023/06/15 11:26:43;;;;;;;6.80;3.93;;;23.40;61.20;;;;;;5075295;28;20435;-47
2023/06/15 11:29:12;;;;;;;12.40;4.30;;;23.30;60.50;;;;;;5056630;28;20450;-46
2023/06/15 11:31:41;;;;;;;9.13;4.43;;;23.60;60.60;;;;;;5074818;28;20518;-46
2023/06/15 11:34:10;;;;;;;12.93;5.90;;;23.70;60.20;;;;;;5074950;28;20443;-48
2023/06/15 11:36:37;;;;;;;4.43;3.67;;;23.70;59.80;;;;;;5075186;28;20473;-47
2023/06/15 11:39:05;;;;;;;8.83;4.23;;;23.70;60.10;;;;;;5074739;28;20854;-47
2023/06/15 11:41:33;;;;;;;4.23;3.80;;;23.70;60.30;;;;;;5074811;28;20444;-46
2023/06/15 11:44:00;;;;;;;4.20;3.70;;;23.70;60.60;;;;;;5074831;28;20535;-47
2023/06/15 11:46:27;;;;;;;8.60;3.70;;;23.70;61.00;;;;;;5075042;28;20502;-47
2023/06/15 11:48:56;;;;;;;4.93;3.90;;;23.60;61.40;;;;;;5074439;28;20446;-48
2023/06/15 11:51:23;;;;;;;4.43;4.00;;;23.40;61.80;;;;;;5074487;28;20511;-46
2023/06/15 11:53:53;;;;;;;9.17;4.50;;;23.20;62.40;;;;;;5074297;28;20493;-46
2023/06/15 11:56:20;;;;;;;4.60;3.63;;;23.10;63.20;;;;;;5075239;28;20982;-46
2023/06/15 11:58:49;;;;;;;7.37;4.13;;;23.00;63.90;;;;;;5074111;28;20963;-47
2023/06/15 12:01:17;;;;;;;6.93;4.47;;;23.00;64.20;;;;;;5074599;28;21115;-46
2023/06/15 12:03:44;;;;;;;10.30;4.43;;;23.00;64.80;;;;;;5074721;28;20485;-46
2023/06/15 12:06:16;;;;;;;7.43;4.33;;;23.10;64.80;;;;;;5074109;28;20452;-48
2023/06/15 12:08:44;;;;;;;8.53;4.77;;;23.20;64.80;;;;;;5074385;28;20427;-47
2023/06/15 12:11:11;;;;;;;5.53;4.80;;;23.40;64.40;;;;;;5074369;28;20466;-48
2023/06/15 12:13:39;;;;;;;9.97;4.63;;;23.60;63.80;;;;;;5074056;28;20530;-47
2023/06/15 12:16:07;;;;;;;8.73;4.07;;;23.80;61.70;;;;;;5074234;28;20797;-47
2023/06/15 12:18:34;;;;;;;5.97;5.00;;;23.90;61.00;;;;;;5055695;28;20818;-46
2023/06/15 12:21:03;;;;;;;6.17;3.60;;;23.90;60.90;;;;;;5073839;28;20463;-46
2023/06/15 12:23:31;;;;;;;5.10;3.50;;;24.00;59.90;;;;;;5074004;28;20447;-49
2023/06/15 12:26:00;;;;;;;10.32;5.30;;;23.90;59.90;;;;;;5073138;28;20981;-47
2023/06/15 12:28:27;;;;;;;7.93;3.90;;;24.10;59.30;;;;;;5073829;28;20723;-46
2023/06/15 12:30:59;;;;;;;8.30;4.27;;;23.90;59.70;;;;;;5074613;28;20428;-45
2023/06/15 12:33:30;;;;;;;5.60;3.77;;;23.90;60.10;;;;;;5072747;28;20443;-46
2023/06/15 12:35:57;;;;;;;6.27;3.47;;;23.80;59.80;;;;;;5074353;28;20868;-47
2023/06/15 12:38:25;;;;;;;12.30;3.83;;;23.80;59.50;;;;;;5073106;28;20481;-47
2023/06/15 12:40:53;;;;;;;9.60;3.27;;;23.60;59.00;;;;;;5073794;28;20428;-46
2023/06/15 12:43:20;;;;;;;11.07;3.27;;;23.80;58.50;;;;;;5054931;28;20453;-47
2023/06/15 12:45:47;;;;;;;7.43;3.50;;;23.90;58.20;;;;;;5072320;28;20502;-47
2023/06/15 12:48:14;;;;;;;4.50;3.93;;;23.90;57.80;;;;;;5073696;28;20792;-47
2023/06/15 12:50:42;;;;;;;6.47;3.37;;;24.00;57.90;;;;;;5073627;28;20456;-46
2023/06/15 12:53:09;;;;;;;11.23;3.53;;;23.90;58.10;;;;;;5055822;28;20457;-46